Time;durP1;ratioP1;P1;durP2;ratioP2;P2;SDS_P1;SDS_P2;PMS_P1;PMS_P2;Temp;Humidity;BMP_temperature;BMP_pressure;BME280_temperature;BME280_humidity;BME280_pressure;Samples;Min_cycle;Max_cycle;Signal;HPM_P1;HPM_P2
2022/05/24 00:01:21;;;;;;;3.37;3.17;;;;;;;17.00;100.00;99197.34;5028877;28;20187;-76
2022/05/24 00:03:46;;;;;;;3.63;3.33;;;;;;;17.00;100.00;99194.72;5022679;28;20218;-76
2022/05/24 00:06:13;;;;;;;4.03;3.73;;;;;;;16.99;100.00;99199.13;5025423;28;20193;-76
2022/05/24 00:08:39;;;;;;;4.00;3.70;;;;;;;16.96;100.00;99193.19;5027853;28;20288;-76
2022/05/24 00:11:05;;;;;;;4.03;3.73;;;;;;;16.91;100.00;99199.50;5025531;28;20190;-76
2022/05/24 00:13:31;;;;;;;3.93;3.70;;;;;;;16.87;100.00;99203.19;5023525;28;20687;-76
2022/05/24 00:15:57;;;;;;;4.67;4.27;;;;;;;16.81;100.00;99200.88;5023757;28;20262;-76
2022/05/24 00:18:26;;;;;;;4.60;4.20;;;;;;;16.74;100.00;99189.09;5020638;28;20211;-77
2022/05/24 00:21:00;;;;;;;4.53;4.17;;;;;;;16.66;100.00;99194.69;5020054;28;20194;-76
2022/05/24 00:23:28;;;;;;;4.10;3.80;;;;;;;16.57;100.00;99189.94;5025769;28;20278;-76
2022/05/24 00:25:57;;;;;;;4.40;4.00;;;;;;;16.51;100.00;99182.44;5043661;28;20297;-76
2022/05/24 00:28:25;;;;;;;4.43;4.13;;;;;;;16.48;100.00;99178.22;5022978;28;20203;-77
2022/05/24 00:30:51;;;;;;;5.00;4.50;;;;;;;16.48;100.00;99173.00;5030059;28;20183;-76
2022/05/24 00:33:17;;;;;;;5.07;4.67;;;;;;;16.46;100.00;99173.06;5030707;28;20189;-76
2022/05/24 00:35:44;;;;;;;4.00;3.70;;;;;;;16.48;100.00;99178.22;5023756;28;20873;-76
2022/05/24 00:38:14;;;;;;;5.07;4.57;;;;;;;16.48;100.00;99173.00;5029060;28;20218;-75
2022/05/24 00:40:45;;;;;;;4.43;4.13;;;;;;;16.51;100.00;99179.81;5025830;28;20568;-76
2022/05/24 00:43:31;;;;;;;4.67;4.37;;;;;;;16.50;100.00;99181.56;5026218;28;20556;-75
2022/05/24 00:46:03;;;;;;;5.00;4.70;;;;;;;16.51;100.00;99180.66;5025589;28;20179;-75
2022/05/24 00:48:33;;;;;;;4.37;4.07;;;;;;;16.48;100.00;99175.63;5027230;28;20607;-77
2022/05/24 00:51:01;;;;;;;4.47;4.17;;;;;;;16.44;100.00;99174.91;5046215;28;20565;-76
2022/05/24 00:53:39;;;;;;;4.40;4.10;;;;;;;16.41;100.00;99176.84;5028287;28;20180;-75
2022/05/24 00:56:10;;;;;;;4.33;4.03;;;;;;;16.35;100.00;99167.56;5029587;28;20180;-74
2022/05/24 00:58:41;;;;;;;4.67;4.27;;;;;;;16.29;100.00;99175.69;5026848;28;20286;-75
2022/05/24 01:01:33;;;;;;;4.97;4.57;;;;;;;16.22;100.00;99176.94;5029350;28;20179;-75
2022/05/24 01:03:58;;;;;;;4.83;4.40;;;;;;;16.16;100.00;99167.63;5029829;28;20186;-75
2022/05/24 01:06:24;;;;;;;4.30;4.00;;;;;;;16.10;100.00;99163.56;5028305;28;20187;-75
2022/05/24 01:08:52;;;;;;;4.43;4.10;;;;;;;16.07;100.00;99163.72;5025928;28;20273;-75
2022/05/24 01:11:20;;;;;;;3.90;3.60;;;;;;;16.04;100.00;99171.69;5029436;28;20716;-75
2022/05/24 01:13:46;;;;;;;4.40;4.00;;;;;;;16.03;100.00;99175.22;5025317;28;20192;-75
2022/05/24 01:16:12;;;;;;;4.10;3.87;;;;;;;16.03;100.00;99158.75;5028111;28;20182;-75
2022/05/24 01:18:38;;;;;;;4.23;3.93;;;;;;;16.03;100.00;99158.75;5028529;28;20294;-76
2022/05/24 01:21:06;;;;;;;4.57;4.27;;;;;;;16.03;100.00;99164.78;5025700;28;20270;-77
2022/05/24 01:24:09;;;;;;;4.20;3.90;;;;;;;16.01;100.00;99150.97;5026822;28;20171;-77
2022/05/24 01:26:53;;;;;;;4.07;3.77;;;;;;;15.96;100.00;99142.50;5011961;28;20207;-76
2022/05/24 01:29:22;;;;;;;4.43;4.03;;;;;;;15.94;100.00;99144.38;5023869;28;20207;-77
2022/05/24 01:37:20;;;;;;;4.00;3.70;;;;;;;15.81;100.00;99134.50;5025840;28;20261;-76
2022/05/24 01:39:52;;;;;;;3.90;3.60;;;;;;;15.79;100.00;99135.50;5026263;28;20212;-75
2022/05/24 01:42:19;;;;;;;3.83;3.53;;;;;;;15.77;100.00;99139.94;5023524;28;20196;-76
2022/05/24 01:44:51;;;;;;;3.77;3.47;;;;;;;15.75;100.00;99136.56;5022419;28;20199;-77
2022/05/24 01:47:18;;;;;;;3.63;3.37;;;;;;;15.73;100.00;99138.44;5028506;28;20226;-77
2022/05/24 01:49:48;;;;;;;3.90;3.60;;;;;;;15.70;100.00;99134.19;5026694;28;20365;-76
2022/05/24 01:52:21;;;;;;;3.93;3.63;;;;;;;15.68;100.00;99131.66;5030988;28;20189;-76
2022/05/24 01:54:51;;;;;;;3.50;3.30;;;;;;;15.64;100.00;99135.31;5027204;28;20189;-76
2022/05/24 01:57:21;;;;;;;3.43;3.23;;;;;;;15.61;100.00;99138.06;5028872;28;20214;-76
2022/05/24 01:59:49;;;;;;;3.70;3.50;;;;;;;15.58;100.00;99135.63;5033897;28;20212;-76
2022/05/24 02:02:16;;;;;;;3.63;3.43;;;;;;;15.53;100.00;99140.22;5031201;28;20186;-76
2022/05/24 02:04:41;;;;;;;3.83;3.53;;;;;;;15.50;100.00;99140.38;5026626;28;20195;-77
2022/05/24 02:07:11;;;;;;;3.87;3.57;;;;;;;15.48;100.00;99147.41;5029148;28;20204;-77
2022/05/24 02:09:39;;;;;;;4.13;3.83;;;;;;;15.46;100.00;99151.84;5022712;28;20183;-76
2022/05/24 02:12:12;;;;;;;3.50;3.20;;;;;;;15.44;100.00;99143.25;5023681;28;20190;-77
2022/05/24 02:14:43;;;;;;;3.67;3.37;;;;;;;15.44;100.00;99144.13;5028989;28;20206;-77
2022/05/24 02:17:13;;;;;;;3.40;3.10;;;;;;;15.42;100.00;99138.13;5026934;28;20210;-77
2022/05/24 02:19:46;;;;;;;3.60;3.30;;;;;;;15.41;100.00;99135.59;5026233;28;20210;-77
2022/05/24 02:22:17;;;;;;;3.80;3.60;;;;;;;15.39;100.00;99139.13;5023352;28;20269;-76
2022/05/24 02:24:43;;;;;;;3.47;3.17;;;;;;;15.38;100.00;99134.81;5034117;28;20281;-76
2022/05/24 02:27:08;;;;;;;3.67;3.40;;;;;;;15.37;100.00;99130.53;5025097;28;20810;-76
2022/05/24 02:29:33;;;;;;;3.37;3.17;;;;;;;15.37;100.00;99119.25;5028071;28;20186;-76
2022/05/24 02:31:59;;;;;;;3.60;3.40;;;;;;;15.36;100.00;99120.16;5027183;28;20228;-76
2022/05/24 02:34:24;;;;;;;3.53;3.33;;;;;;;15.36;100.00;99122.75;5024948;28;20194;-77
2022/05/24 02:36:50;;;;;;;3.47;3.27;;;;;;;15.37;100.00;99116.63;5032436;28;20233;-76
2022/05/24 02:39:15;;;;;;;3.80;3.30;;;;;;;15.38;100.00;99120.94;5027613;28;20211;-76
2022/05/24 02:41:41;;;;;;;3.57;3.37;;;;;;;15.39;100.00;99127.84;5023678;28;20202;-76
2022/05/24 02:44:12;;;;;;;3.60;3.40;;;;;;;15.39;100.00;99122.63;5028141;28;20187;-76
2022/05/24 02:46:40;;;;;;;5.10;3.30;;;;;;;15.38;100.00;99119.19;5018501;28;20191;-77
2022/05/24 02:49:07;;;;;;;3.40;3.10;;;;;;;15.37;100.00;99117.50;5022068;28;20274;-76
2022/05/24 02:51:33;;;;;;;3.10;2.90;;;;;;;15.37;100.00;99119.25;5030551;28;20230;-76
2022/05/24 02:54:00;;;;;;;3.23;3.00;;;;;;;15.36;100.00;99120.16;5026247;28;20219;-76
2022/05/24 02:56:25;;;;;;;3.33;3.10;;;;;;;15.36;100.00;99133.19;5027354;28;20191;-76
2022/05/24 02:58:51;;;;;;;3.30;3.10;;;;;;;15.36;100.00;99127.97;5025599;28;20245;-76
2022/05/24 03:01:25;;;;;;;3.23;3.00;;;;;;;15.34;100.00;99130.66;5025795;28;20190;-77
2022/05/24 03:03:52;;;;;;;3.17;2.70;;;;;;;15.34;100.00;99127.22;5021986;28;20187;-77
2022/05/24 03:06:19;;;;;;;3.37;3.07;;;;;;;15.33;100.00;99139.41;5022914;28;20627;-76
2022/05/24 03:14:14;;;;;;;3.20;2.90;;;;;;;15.33;100.00;99133.34;5025005;28;20233;-76
2022/05/24 03:14:16;;;;;;;2.80;2.60;;;;;;;15.30;100.00;99123.06;5021118;28;20205;-77
2022/05/24 03:16:45;;;;;;;2.80;2.60;;;;;;;15.27;100.00;99120.59;5026896;28;20187;-76
2022/05/24 03:19:10;;;;;;;2.47;2.37;;;;;;;15.24;100.00;99119.00;5026840;28;20241;-76
2022/05/24 03:21:36;;;;;;;2.50;2.37;;;;;;;15.24;100.00;99113.78;5024852;28;20192;-77
2022/05/24 03:24:01;;;;;;;3.07;2.87;;;;;;;15.23;100.00;99110.31;5026212;28;20179;-76
2022/05/24 03:26:27;;;;;;;2.70;2.50;;;;;;;15.21;100.00;99119.97;5030802;28;20373;-76
2022/05/24 03:28:52;;;;;;;2.93;2.70;;;;;;;15.23;100.00;99125.94;5020659;28;20256;-76
2022/05/24 03:31:18;;;;;;;3.10;2.80;;;;;;;15.26;100.00;99124.97;5027201;28;20191;-76
2022/05/24 03:33:43;;;;;;;2.87;2.67;;;;;;;15.32;100.00;99127.28;5023924;28;20191;-76
2022/05/24 03:36:09;;;;;;;2.77;2.57;;;;;;;15.36;100.00;99128.84;5023291;28;20184;-76
2022/05/24 03:38:34;;;;;;;3.50;2.60;;;;;;;15.39;100.00;99120.00;5018699;28;20719;-76
2022/05/24 03:41:00;;;;;;;2.47;2.37;;;;;;;15.42;100.00;99127.69;5023010;28;20188;-77
2022/05/24 03:43:26;;;;;;;2.30;2.20;;;;;;;15.45;100.00;99124.09;5022676;28;20682;-77
2022/05/24 03:46:07;;;;;;;3.37;2.20;;;;;;;15.47;100.00;99124.88;5027064;28;20693;-77
2022/05/24 03:48:33;;;;;;;2.33;2.23;;;;;;;15.50;100.00;99128.16;5023057;28;20230;-76
2022/05/24 03:50:59;;;;;;;2.93;2.30;;;;;;;15.52;100.00;99126.31;5020999;28;20683;-77
2022/05/24 03:53:25;;;;;;;3.37;2.30;;;;;;;15.52;100.00;99128.94;5023871;28;20191;-77
2022/05/24 03:55:50;;;;;;;1.80;1.70;;;;;;;15.52;100.00;99128.94;5022818;28;20198;-76
2022/05/24 03:58:16;;;;;;;2.50;2.30;;;;;;;15.54;100.00;99131.50;5024499;28;20215;-76
2022/05/24 04:00:42;;;;;;;2.23;1.97;;;;;;;15.56;100.00;99124.44;5024877;28;20225;-76
2022/05/24 04:03:08;;;;;;;2.17;2.03;;;;;;;15.58;100.00;99126.97;5027035;28;20584;-76
2022/05/24 04:05:34;;;;;;;2.07;1.97;;;;;;;15.59;100.00;99129.47;5029339;28;20205;-76
2022/05/24 04:08:00;;;;;;;1.90;1.73;;;;;;;15.62;100.00;99136.34;5032240;28;20644;-74
2022/05/24 04:10:27;;;;;;;1.90;1.80;;;;;;;15.63;100.00;99138.84;5029199;28;20191;-75
2022/05/24 04:12:52;;;;;;;2.10;2.00;;;;;;;15.66;100.00;99149.16;5029970;28;20184;-75
2022/05/24 04:15:19;;;;;;;2.03;1.83;;;;;;;15.67;100.00;99153.44;5024323;28;20222;-74
2022/05/24 04:17:46;;;;;;;3.33;2.23;;;;;;;15.70;100.00;99168.09;5027256;28;20667;-76
2022/05/24 04:20:12;;;;;;;2.27;2.10;;;;;;;15.71;100.00;99167.19;5027444;28;20202;-75
2022/05/24 04:22:38;;;;;;;2.20;2.10;;;;;;;15.72;100.00;99165.44;5030258;28;20246;-75
2022/05/24 04:25:03;;;;;;;3.03;1.90;;;;;;;15.72;100.00;99168.03;5029381;28;20198;-76
2022/05/24 04:27:29;;;;;;;1.73;1.63;;;;;;;15.69;100.00;99159.44;5028456;28;20223;-76
2022/05/24 04:29:54;;;;;;;2.80;1.77;;;;;;;15.72;100.00;99162.81;5028989;28;20195;-76
2022/05/24 04:32:20;;;;;;;3.53;1.80;;;;;;;15.70;100.00;99158.53;5024060;28;20663;-76
2022/05/24 04:34:46;;;;;;;1.80;1.70;;;;;;;15.72;100.00;99157.59;5022083;28;20189;-76
2022/05/24 04:37:12;;;;;;;1.57;1.47;;;;;;;15.74;100.00;99158.34;5026233;28;20206;-75
2022/05/24 04:39:37;;;;;;;1.70;1.60;;;;;;;15.79;100.00;99166.81;5032646;28;20562;-76
2022/05/24 04:42:19;;;;;;;2.00;1.80;;;;;;;15.89;100.00;99177.66;5031100;28;20183;-76
2022/05/24 04:44:49;;;;;;;2.10;1.70;;;;;;;16.09;100.00;99184.50;5032106;28;20179;-76
2022/05/24 04:47:15;;;;;;;1.60;1.50;;;;;;;16.32;100.00;99185.16;5030679;28;20202;-75
2022/05/24 04:49:47;;;;;;;3.03;1.80;;;;;;;16.56;100.00;99185.66;5028549;28;20191;-76
2022/05/24 04:52:14;;;;;;;1.70;1.37;;;;;;;17.06;100.00;99181.34;5025941;28;20682;-76
2022/05/24 04:54:42;;;;;;;2.50;1.60;;;;;;;17.66;100.00;99179.81;5024208;28;20190;-75
2022/05/24 04:57:08;;;;;;;1.47;1.30;;;;;;;17.93;100.00;99182.63;5030199;28;20682;-74
2022/05/24 04:59:34;;;;;;;2.00;1.30;;;;;;;18.09;100.00;99181.78;5030467;28;20222;-75
2022/05/24 05:02:00;;;;;;;1.30;1.20;;;;;;;18.19;100.00;99182.09;5024184;28;20269;-76
2022/05/24 05:04:26;;;;;;;2.10;1.50;;;;;;;18.28;100.00;99189.44;5025199;28;20976;-76
2022/05/24 05:06:52;;;;;;;1.40;1.30;;;;;;;18.37;100.00;99195.91;5025224;28;20193;-76
2022/05/24 05:09:18;;;;;;;1.60;1.50;;;;;;;18.28;100.00;99192.88;5020234;28;20194;-76
2022/05/24 05:11:44;;;;;;;1.87;1.50;;;;;;;18.06;100.00;99195.91;5024336;28;20181;-76
2022/05/24 05:14:10;;;;;;;1.77;1.67;;;;;;;17.78;100.00;99200.06;5024418;28;20196;-76
2022/05/24 05:16:36;;;;;;;2.07;1.60;;;;;;;17.57;100.00;99201.25;5026871;28;20315;-76
2022/05/24 05:19:03;;;;;;;1.63;1.53;;;;;;;17.40;100.00;99199.56;5026198;28;20814;-76
2022/05/24 05:21:31;;;;;;;1.50;1.40;;;;;;;17.31;100.00;99191.31;5031960;28;20178;-76
2022/05/24 05:23:57;;;;;;;1.90;1.63;;;;;;;17.27;100.00;99195.03;5026584;28;20647;-76
2022/05/24 05:26:22;;;;;;;1.73;1.57;;;;;;;17.23;100.00;99201.34;5024092;28;20277;-76
2022/05/24 05:28:47;;;;;;;1.53;1.43;;;;;;;17.19;100.00;99200.66;5030102;28;20664;-75
2022/05/24 05:31:26;;;;;;;2.23;1.77;;;;;;;17.17;100.00;99201.66;5027064;28;20665;-76
2022/05/24 05:33:57;;;;;;;1.80;1.50;;;;;;;17.15;100.00;99206.97;5029819;28;20185;-75
2022/05/24 05:36:24;;;;;;;1.60;1.50;;;;;;;17.11;100.00;99212.47;5028297;28;20273;-75
2022/05/24 05:38:49;;;;;;;1.90;1.70;;;;;;;17.11;100.00;99215.91;5030466;28;20215;-77
2022/05/24 05:41:18;;;;;;;1.70;1.60;;;;;;;17.11;100.00;99247.28;5030295;28;20235;-76
2022/05/24 05:43:44;;;;;;;3.63;1.97;;;;;;;17.10;100.00;99266.50;5023758;28;20651;-77
2022/05/24 05:46:10;;;;;;;2.10;1.80;;;;;;;17.06;100.00;99264.97;5023880;28;20290;-75
2022/05/24 05:48:38;;;;;;;1.87;1.77;;;;;;;17.06;100.00;99272.81;5027771;28;20196;-77
2022/05/24 05:51:05;;;;;;;3.77;2.10;;;;;;;17.01;100.00;99275.69;5027434;28;20180;-76
2022/05/24 05:53:30;;;;;;;2.43;2.17;;;;;;;16.97;100.00;99300.28;5028334;28;20188;-76
2022/05/24 05:55:55;;;;;;;3.13;1.60;;;;;;;16.80;100.00;99319.38;5018485;28;20604;-76
2022/05/24 05:58:22;;;;;;;1.00;0.80;;;;;;;16.59;100.00;99331.75;5024000;28;20300;-76
2022/05/24 06:00:48;;;;;;;1.10;0.90;;;;;;;16.35;100.00;99332.03;5023217;28;20245;-76
2022/05/24 06:03:14;;;;;;;1.13;0.77;;;;;;;16.20;100.00;99335.38;5029045;28;20660;-76
2022/05/24 06:05:40;;;;;;;2.10;1.00;;;;;;;16.07;100.00;99340.31;5023397;28;20198;-76
2022/05/24 06:08:08;;;;;;;1.37;0.90;;;;;;;16.03;100.00;99347.47;5029401;28;20200;-76
2022/05/24 06:10:34;;;;;;;1.60;0.90;;;;;;;15.94;100.00;99350.50;5022754;28;20191;-76
2022/05/24 06:13:00;;;;;;;0.70;0.50;;;;;;;15.86;100.00;99363.91;5028171;28;20190;-76
2022/05/24 06:15:28;;;;;;;1.57;1.00;;;;;;;15.79;100.00;99362.44;5028726;28;20191;-76
2022/05/24 06:17:54;;;;;;;1.40;0.90;;;;;;;15.78;100.00;99387.72;5028147;28;20219;-76
2022/05/24 06:20:23;;;;;;;2.20;0.93;;;;;;;15.79;100.00;99386.78;5026403;28;20649;-77
2022/05/24 06:22:49;;;;;;;1.20;1.10;;;;;;;15.81;100.00;99387.53;5026964;28;20206;-76
2022/05/24 06:25:16;;;;;;;1.27;0.77;;;;;;;15.85;100.00;99402.19;5027653;28;20188;-76
2022/05/24 06:27:41;;;;;;;1.17;0.90;;;;;;;15.94;100.00;99415.75;5029612;28;20195;-76
2022/05/24 06:30:08;;;;;;;1.37;1.03;;;;;;;16.03;100.00;99427.53;5031135;28;20184;-77
2022/05/24 06:32:34;;;;;;;2.73;1.00;;;;;;;16.10;100.00;99442.84;5029624;28;20657;-75
2022/05/24 06:35:02;;;;;;;1.87;1.13;;;;;;;16.12;100.00;99446.19;5029855;28;20184;-76
2022/05/24 06:37:27;;;;;;;2.00;1.20;;;;;;;16.16;100.00;99449.53;5026747;28;20293;-76
2022/05/24 06:39:53;;;;;;;2.33;1.07;;;;;;;16.11;100.00;99454.13;5029969;28;20317;-77
2022/05/24 06:42:18;;;;;;;1.33;0.70;;;;;;;16.05;100.00;99446.56;5028940;28;20215;-76
2022/05/24 06:44:44;;;;;;;1.13;0.80;;;;;;;16.04;100.00;99452.69;5028844;28;20187;-76
2022/05/24 06:47:09;;;;;;;2.03;0.90;;;;;;;16.12;100.00;99458.41;5024406;28;20223;-76
2022/05/24 06:49:36;;;;;;;3.07;1.10;;;;;;;16.25;100.00;99462.16;5026632;28;20184;-77
2022/05/24 06:52:02;;;;;;;2.00;0.87;;;;;;;16.36;100.00;99466.03;5026688;28;20188;-77
2022/05/24 06:54:27;;;;;;;1.93;0.90;;;;;;;16.45;100.00;99476.91;5023264;28;20191;-76
2022/05/24 06:56:53;;;;;;;0.97;0.87;;;;;;;16.58;100.00;99490.25;5020515;28;20199;-76
2022/05/24 07:04:46;;;;;;;1.40;0.87;;;;;;;17.13;100.00;99498.16;5028977;28;20662;-76
2022/05/24 07:07:11;;;;;;;1.27;0.83;;;;;;;17.24;100.00;99500.25;5027398;28;20218;-75
2022/05/24 07:09:40;;;;;;;1.17;0.70;;;;;;;17.42;100.00;99504.56;5025804;28;20181;-76
2022/05/24 07:12:08;;;;;;;2.43;0.90;;;;;;;17.68;100.00;99507.66;5027150;28;20560;-77
2022/05/24 07:14:34;;;;;;;1.37;0.80;;;;;;;17.81;100.00;99515.69;5024993;28;20654;-77
2022/05/24 07:16:59;;;;;;;0.90;0.73;;;;;;;18.01;100.00;99517.31;5030158;28;20261;-76
2022/05/24 07:19:25;;;;;;;1.80;0.90;;;;;;;18.35;100.00;99526.00;5031709;28;20203;-76
2022/05/24 07:21:51;;;;;;;2.50;0.90;;;;;;;18.88;100.00;99526.63;5028833;28;20242;-76
2022/05/24 07:24:17;;;;;;;0.73;0.73;;;;;;;19.79;100.00;99514.50;5029087;28;20182;-76
2022/05/24 07:26:43;;;;;;;1.03;0.80;;;;;;;20.46;100.00;99513.13;5027855;28;20281;-76
2022/05/24 07:29:09;;;;;;;1.53;0.67;;;;;;;21.03;98.54;99512.13;5027795;28;20181;-76
2022/05/24 07:31:37;;;;;;;0.93;0.70;;;;;;;22.01;95.83;99513.56;5029260;28;20207;-76
2022/05/24 07:34:03;;;;;;;2.00;0.70;;;;;;;23.09;91.59;99511.19;5027496;28;20603;-75
2022/05/24 07:36:28;;;;;;;2.30;1.10;;;;;;;23.94;88.67;99509.28;5028239;28;20182;-76
2022/05/24 07:38:53;;;;;;;1.63;0.60;;;;;;;24.55;86.81;99512.53;5027842;28;20211;-75
2022/05/24 07:46:47;;;;;;;0.97;0.70;;;;;;;23.95;82.44;99512.75;5029632;28;20242;-76
2022/05/24 07:49:12;;;;;;;0.77;0.60;;;;;;;23.59;84.29;99515.47;5028729;28;20183;-75
2022/05/24 07:51:38;;;;;;;3.13;0.90;;;;;;;23.65;84.87;99522.09;5026129;28;20643;-75
2022/05/24 07:54:03;;;;;;;0.80;0.50;;;;;;;23.82;84.12;99513.72;5025446;28;20199;-76
2022/05/24 07:56:28;;;;;;;2.40;0.70;;;;;;;23.84;84.51;99506.50;5025818;28;20559;-74
2022/05/24 07:58:54;;;;;;;0.90;0.60;;;;;;;23.88;84.02;99504.47;5026133;28;20203;-74
2022/05/24 08:01:20;;;;;;;2.57;0.87;;;;;;;24.03;81.64;99500.66;5018748;28;20188;-77
2022/05/24 08:03:46;;;;;;;0.70;0.50;;;;;;;23.90;81.52;99511.31;5026790;28;20198;-75
2022/05/24 08:06:11;;;;;;;1.50;0.80;;;;;;;23.89;82.18;99507.00;5029075;28;20191;-75
2022/05/24 08:08:38;;;;;;;1.30;0.70;;;;;;;23.88;82.42;99512.41;5029020;28;20207;-77
2022/05/24 08:11:05;;;;;;;1.37;0.57;;;;;;;24.02;81.33;99520.13;5029008;28;20192;-76
2022/05/24 08:13:31;;;;;;;0.87;0.40;;;;;;;23.89;81.77;99522.88;5020879;28;20226;-76
2022/05/24 08:15:56;;;;;;;1.63;0.63;;;;;;;23.81;82.00;99522.59;5027931;28;20219;-77
2022/05/24 08:18:23;;;;;;;0.60;0.60;;;;;;;23.77;81.62;99526.44;5024329;28;20682;-76
2022/05/24 08:20:49;;;;;;;0.80;0.60;;;;;;;23.68;82.00;99530.59;5028581;28;20179;-77
2022/05/24 08:23:18;;;;;;;0.67;0.67;;;;;;;23.48;81.64;99531.28;5026232;28;20558;-76
2022/05/24 08:25:44;;;;;;;0.47;0.47;;;;;;;23.22;82.60;99536.69;5025817;28;20280;-77
2022/05/24 08:28:09;;;;;;;1.23;0.73;;;;;;;23.24;83.49;99538.28;5022052;28;20275;-76
2022/05/24 08:30:37;;;;;;;0.80;0.63;;;;;;;23.17;83.19;99546.75;5024256;28;20196;-76
2022/05/24 08:33:05;;;;;;;1.23;0.70;;;;;;;23.17;83.31;99547.56;5028483;28;20179;-75
2022/05/24 08:35:33;;;;;;;1.20;0.60;;;;;;;23.29;82.83;99546.69;5024421;28;20196;-76
2022/05/24 08:37:59;;;;;;;0.70;0.40;;;;;;;23.37;82.57;99547.94;5026058;28;20211;-75
2022/05/24 08:40:25;;;;;;;0.90;0.63;;;;;;;23.51;82.59;99542.47;5027892;28;20643;-77
2022/05/24 08:43:06;;;;;;;0.47;0.40;;;;;;;23.67;82.52;99552.69;5027216;28;20206;-76
2022/05/24 08:48:26;;;;;;;0.73;0.60;;;;;;;23.14;83.12;99553.09;5022567;28;20218;-76
2022/05/24 08:51:41;;;;;;;2.30;0.87;;;;;;;22.84;84.15;99549.94;5032241;28;20182;-76
2022/05/24 08:54:08;;;;;;;1.53;0.80;;;;;;;22.55;84.56;99559.09;5024474;28;20563;-76
2022/05/24 08:56:42;;;;;;;0.60;0.60;;;;;;;22.35;85.07;99559.50;5031878;28;20191;-77
2022/05/24 08:59:19;;;;;;;1.10;0.67;;;;;;;22.37;85.35;99547.06;5029720;28;20199;-76
2022/05/24 09:01:46;;;;;;;0.97;0.87;;;;;;;22.43;83.89;99551.09;5025091;28;20678;-76
2022/05/24 09:04:12;;;;;;;0.60;0.60;;;;;;;22.46;84.95;99547.41;5017524;28;20190;-76
2022/05/24 09:06:53;;;;;;;1.40;0.80;;;;;;;22.61;85.34;99543.66;5019235;28;20269;-76
2022/05/24 09:09:56;;;;;;;1.30;0.63;;;;;;;22.63;84.84;99539.13;5018584;28;20219;-75
2022/05/24 09:12:29;;;;;;;0.87;0.70;;;;;;;22.61;84.67;99522.56;5018682;28;20989;-76
2022/05/24 09:15:32;;;;;;;1.10;0.50;;;;;;;22.53;85.22;99528.41;5036289;28;20198;-78
2022/05/24 09:18:27;;;;;;;0.60;0.60;;;;;;;22.53;84.20;99520.47;5020566;28;20682;-76
2022/05/24 09:20:53;;;;;;;1.37;0.67;;;;;;;22.56;83.47;99519.41;5020071;28;20198;-76
2022/05/24 09:23:41;;;;;;;1.57;0.70;;;;;;;22.58;83.40;99522.78;5016515;28;20199;-74
2022/05/24 09:26:13;;;;;;;0.83;0.60;;;;;;;22.80;82.76;99527.34;5018568;28;20208;-76
2022/05/24 09:28:42;;;;;;;1.73;0.90;;;;;;;23.03;80.69;99527.50;5015279;28;20685;-74
2022/05/24 09:31:09;;;;;;;1.70;0.60;;;;;;;23.06;79.98;99527.28;5015407;28;20202;-75
2022/05/24 09:33:40;;;;;;;0.97;0.50;;;;;;;22.95;80.38;99533.34;5018079;28;20188;-76
2022/05/24 09:36:05;;;;;;;0.80;0.50;;;;;;;22.82;79.85;99543.91;5019947;28;20195;-76
2022/05/24 09:38:38;;;;;;;0.80;0.70;;;;;;;22.73;79.70;99547.22;5020642;28;20215;-77
2022/05/24 09:41:18;;;;;;;0.83;0.63;;;;;;;22.75;78.82;99545.34;5031550;28;20175;-77
2022/05/24 09:44:01;;;;;;;0.60;0.50;;;;;;;22.78;77.79;99544.25;5028803;28;20187;-77
2022/05/24 09:46:28;;;;;;;1.83;0.60;;;;;;;22.79;76.70;99546.78;5032439;28;20196;-76
2022/05/24 09:49:01;;;;;;;0.67;0.60;;;;;;;22.97;76.60;99557.81;5022544;28;20204;-76
2022/05/24 09:51:41;;;;;;;0.50;0.50;;;;;;;23.20;76.39;99539.47;5020560;28;20200;-76
2022/05/24 09:54:22;;;;;;;1.30;0.40;;;;;;;23.15;75.80;99531.00;5033222;28;20198;-76
2022/05/24 09:57:03;;;;;;;2.03;0.57;;;;;;;22.89;74.11;99544.31;5028745;28;20187;-76
2022/05/24 09:59:29;;;;;;;2.03;0.50;;;;;;;22.63;75.55;99536.50;5031201;28;20214;-75
2022/05/24 10:01:55;;;;;;;0.90;0.50;;;;;;;22.42;76.00;99545.91;5027351;28;20599;-76
2022/05/24 10:04:27;;;;;;;0.60;0.50;;;;;;;22.37;76.03;99540.94;5030610;28;20245;-76
2022/05/24 10:07:08;;;;;;;0.90;0.53;;;;;;;22.31;74.45;99552.75;5027379;28;20218;-77
2022/05/24 10:09:58;;;;;;;0.70;0.50;;;;;;;22.30;73.99;99553.72;5030447;28;20175;-75
2022/05/24 10:12:47;;;;;;;0.63;0.60;;;;;;;22.62;74.38;99547.13;5023937;28;20214;-76
2022/05/24 10:15:27;;;;;;;1.20;0.50;;;;;;;22.98;73.45;99553.38;5019194;28;20206;-75
2022/05/24 10:18:02;;;;;;;1.13;0.50;;;;;;;23.30;72.68;99552.84;5025236;28;20204;-76
2022/05/24 10:20:39;;;;;;;0.53;0.43;;;;;;;23.50;72.62;99543.41;5028564;28;20735;-75
2022/05/24 10:23:29;;;;;;;1.40;0.70;;;;;;;23.56;71.60;99544.75;5030989;28;20187;-76
2022/05/24 10:26:11;;;;;;;0.60;0.50;;;;;;;23.48;72.09;99545.31;5025809;28;20199;-76
2022/05/24 10:29:09;;;;;;;0.70;0.60;;;;;;;23.42;71.94;99553.72;5029546;28;20228;-76
2022/05/24 10:31:50;;;;;;;0.50;0.50;;;;;;;23.58;71.64;99542.84;5027135;28;20663;-76
2022/05/24 10:38:20;;;;;;;1.23;0.63;;;;;;;23.99;70.39;99532.75;5027534;28;20284;-77
2022/05/24 10:41:04;;;;;;;0.53;0.53;;;;;;;23.93;69.47;99536.66;5005883;28;20199;-76
2022/05/24 10:43:44;;;;;;;0.97;0.53;;;;;;;23.89;69.08;99532.56;5020602;28;20196;-76
2022/05/24 10:46:16;;;;;;;0.63;0.50;;;;;;;23.84;67.24;99532.94;5025773;28;20318;-76
2022/05/24 10:49:31;;;;;;;1.53;0.57;;;;;;;23.69;67.68;99537.56;5029206;28;20262;-75
2022/05/24 10:52:08;;;;;;;0.50;0.40;;;;;;;23.57;67.09;99534.09;4953987;28;20194;-75
2022/05/24 10:54:53;;;;;;;1.20;0.57;;;;;;;23.39;65.58;99538.94;5029420;28;20264;-75
2022/05/24 10:57:26;;;;;;;0.83;0.57;;;;;;;23.23;67.23;99539.25;5029940;28;20294;-75
2022/05/24 10:59:54;;;;;;;1.57;0.60;;;;;;;23.14;67.96;99529.34;5030574;28;20203;-76
2022/05/24 11:02:34;;;;;;;0.80;0.60;;;;;;;23.06;68.05;99544.88;5030047;28;20191;-75
2022/05/24 11:05:22;;;;;;;0.63;0.43;;;;;;;23.01;68.37;99547.00;5032173;28;20183;-76
2022/05/24 11:07:54;;;;;;;0.83;0.50;;;;;;;23.19;68.58;99547.47;5030050;28;20257;-75
2022/05/24 11:10:27;;;;;;;0.73;0.50;;;;;;;23.50;67.51;99534.66;5026578;28;20195;-75
2022/05/24 11:12:56;;;;;;;1.00;0.70;;;;;;;23.67;67.24;99544.78;5028148;28;20191;-75
2022/05/24 11:15:33;;;;;;;2.10;0.73;;;;;;;23.70;67.36;99541.06;5027864;28;20250;-76
2022/05/24 11:18:03;;;;;;;1.10;0.60;;;;;;;23.68;66.55;99532.41;5025878;28;20215;-77
2022/05/24 11:20:35;;;;;;;1.13;0.60;;;;;;;23.84;67.13;99550.56;5033335;28;20179;-74
2022/05/24 11:23:21;;;;;;;1.20;0.60;;;;;;;24.16;67.13;99532.28;5024838;28;20208;-75
2022/05/24 11:25:53;;;;;;;2.07;0.60;;;;;;;24.26;66.59;99537.69;5021252;28;20199;-75
2022/05/24 11:28:27;;;;;;;1.70;0.50;;;;;;;24.16;65.15;99536.69;5028036;28;20207;-75
2022/05/24 11:30:54;;;;;;;2.10;0.80;;;;;;;23.90;66.16;99531.63;5022450;28;20246;-76
2022/05/24 11:33:39;;;;;;;1.80;0.50;;;;;;;23.63;67.75;99537.19;5032967;28;20681;-76
2022/05/24 11:36:34;;;;;;;1.23;0.60;;;;;;;23.50;68.11;99538.13;5028185;28;20190;-76
2022/05/24 11:39:07;;;;;;;1.17;0.60;;;;;;;23.32;69.01;99539.50;5026135;28;20207;-76
2022/05/24 11:41:32;;;;;;;0.80;0.60;;;;;;;23.28;69.75;99544.19;5027553;28;20183;-76
2022/05/24 11:44:05;;;;;;;0.40;0.40;;;;;;;23.17;70.45;99547.56;5029565;28;20605;-75
2022/05/24 11:46:33;;;;;;;0.70;0.50;;;;;;;23.00;70.62;99548.81;5017543;28;20663;-76
2022/05/24 11:49:04;;;;;;;0.87;0.40;;;;;;;22.94;69.36;99552.75;5027191;28;20240;-75
2022/05/24 11:51:51;;;;;;;0.70;0.50;;;;;;;22.92;69.21;99548.50;5028412;28;20189;-76
2022/05/24 11:54:17;;;;;;;3.23;0.90;;;;;;;22.91;68.75;99549.50;5026657;28;20274;-74
2022/05/24 11:57:00;;;;;;;1.33;0.87;;;;;;;22.86;69.46;99560.38;5029071;28;20669;-75
2022/05/24 11:59:46;;;;;;;1.10;0.70;;;;;;;22.91;69.39;99552.97;5021389;28;20204;-75
2022/05/24 12:02:20;;;;;;;0.50;0.50;;;;;;;22.98;69.07;99553.38;5022651;28;20192;-75
2022/05/24 12:07:58;;;;;;;0.83;0.60;;;;;;;22.95;68.51;99562.34;5023260;28;20222;-75
2022/05/24 12:10:26;;;;;;;1.13;0.53;;;;;;;22.97;67.99;99563.09;5019624;28;20287;-74
2022/05/24 12:13:12;;;;;;;1.87;0.50;;;;;;;23.01;67.58;99555.78;5026704;28;20234;-76